createdAt,value
2018-02-24T00:00:38.838Z,10.50
2018-02-24T00:03:08.011Z,11.67
2018-02-24T00:05:36.372Z,11.40
2018-02-24T00:08:04.736Z,10.77
2018-02-24T00:10:33.938Z,11.17
2018-02-24T00:13:02.337Z,11.07
2018-02-24T00:15:30.695Z,10.60
2018-02-24T00:17:59.074Z,11.53
2018-02-24T00:20:28.514Z,11.33
2018-02-24T00:22:56.891Z,10.67
2018-02-24T00:25:25.259Z,11.50
2018-02-24T00:27:53.623Z,11.23
2018-02-24T00:30:21.993Z,11.03
2018-02-24T00:32:50.388Z,12.30
2018-02-24T00:35:18.746Z,11.13
2018-02-24T00:37:47.099Z,11.73
2018-02-24T00:40:16.237Z,10.93
2018-02-24T00:42:44.583Z,10.80
2018-02-24T00:45:13.711Z,10.57
2018-02-24T00:47:42.084Z,10.50
2018-02-24T00:50:10.463Z,10.93
2018-02-24T00:52:38.849Z,11.83
2018-02-24T00:55:08.276Z,11.57
2018-02-24T00:57:36.520Z,11.20
2018-02-24T01:00:04.553Z,12.93
2018-02-24T01:02:33.708Z,11.93
2018-02-24T01:05:02.151Z,11.27
2018-02-24T01:07:31.382Z,13.37
2018-02-24T01:09:59.811Z,12.27
2018-02-24T01:12:28.943Z,11.93
2018-02-24T01:14:57.308Z,12.83
2018-02-24T01:17:26.282Z,12.40
2018-02-24T01:19:55.407Z,13.13
2018-02-24T01:22:23.987Z,13.03
2018-02-24T01:24:52.332Z,12.63
2018-02-24T01:27:21.474Z,12.57
2018-02-24T01:29:49.857Z,12.80
2018-02-24T01:32:18.223Z,13.53
2018-02-24T01:34:46.395Z,14.33
2018-02-24T01:37:14.777Z,12.90
2018-02-24T01:39:43.151Z,13.37
2018-02-24T01:42:11.815Z,14.27
2018-02-24T01:44:40.959Z,14.40
2018-02-24T01:47:09.370Z,12.90
2018-02-24T01:49:38.511Z,13.57
2018-02-24T01:52:06.923Z,15.63
2018-02-24T01:54:35.283Z,13.43
2018-02-24T01:57:03.641Z,14.70
2018-02-24T01:59:32.183Z,14.37
2018-02-24T02:02:02.060Z,15.30
2018-02-24T02:04:30.432Z,16.07
2018-02-24T02:06:58.799Z,14.50
2018-02-24T02:09:27.178Z,14.87
2018-02-24T02:11:55.663Z,14.97
2018-02-24T02:14:24.034Z,16.77
2018-02-24T02:16:52.869Z,14.77
2018-02-24T02:19:22.214Z,15.43
2018-02-24T02:21:52.315Z,14.80
2018-02-24T02:24:21.440Z,16.60
2018-02-24T02:26:49.886Z,15.00
2018-02-24T02:29:18.256Z,17.10
2018-02-24T02:31:47.391Z,16.63
2018-02-24T02:34:15.736Z,16.10
2018-02-24T02:36:44.104Z,16.70
2018-02-24T02:39:13.438Z,15.37
2018-02-24T02:41:41.795Z,15.47
2018-02-24T02:44:10.884Z,15.47
2018-02-24T02:46:40.024Z,16.57
2018-02-24T02:49:08.404Z,17.20
2018-02-24T02:51:36.779Z,17.30
2018-02-24T02:54:05.171Z,16.63
2018-02-24T02:56:33.535Z,16.80
2018-02-24T02:59:02.047Z,16.87
2018-02-24T03:01:30.439Z,15.67
2018-02-24T03:03:59.008Z,17.27
2018-02-24T03:06:27.387Z,17.70
2018-02-24T03:08:55.673Z,16.70
2018-02-24T03:11:24.830Z,16.83
2018-02-24T03:13:53.188Z,16.43
2018-02-24T03:16:21.542Z,17.50
2018-02-24T03:18:49.899Z,16.17
2018-02-24T03:21:19.035Z,17.00
2018-02-24T03:23:47.403Z,16.90
2018-02-24T03:26:15.754Z,17.30
2018-02-24T03:28:44.888Z,17.50
2018-02-24T03:31:13.251Z,16.40
2018-02-24T03:33:41.625Z,18.00
2018-02-24T03:36:10.072Z,17.80
2018-02-24T03:38:38.496Z,17.20
2018-02-24T03:41:06.771Z,17.13
2018-02-24T03:43:35.286Z,16.90
2018-02-24T03:46:04.298Z,16.13
2018-02-24T03:48:32.670Z,16.27
2018-02-24T03:51:00.850Z,16.83
2018-02-24T03:53:29.216Z,17.60
2018-02-24T03:55:57.506Z,18.03
2018-02-24T03:58:25.890Z,15.93
2018-02-24T04:00:54.265Z,16.53
2018-02-24T04:03:22.799Z,17.50
2018-02-24T04:05:50.982Z,16.37
2018-02-24T04:08:19.338Z,16.00
2018-02-24T04:10:47.748Z,14.43
2018-02-24T04:13:16.240Z,15.43
2018-02-24T04:15:44.624Z,16.20
2018-02-24T04:18:12.984Z,16.27
2018-02-24T04:20:41.348Z,16.70
2018-02-24T04:23:12.835Z,16.87
2018-02-24T04:25:41.268Z,16.37
2018-02-24T04:28:09.618Z,15.83
2018-02-24T04:30:38.748Z,15.33
2018-02-24T04:33:07.103Z,16.50
2018-02-24T04:35:35.469Z,16.10
2018-02-24T04:38:04.610Z,16.00
2018-02-24T04:40:32.975Z,16.07
2018-02-24T04:43:01.348Z,16.20
2018-02-24T04:45:29.702Z,16.23
2018-02-24T04:47:58.834Z,14.90
2018-02-24T04:50:27.176Z,16.70
2018-02-24T04:52:55.592Z,16.20
2018-02-24T04:55:24.182Z,15.37
2018-02-24T04:57:52.523Z,16.70
2018-02-24T05:00:20.892Z,15.57
2018-02-24T05:02:49.273Z,16.43
2018-02-24T05:05:17.624Z,16.63
2018-02-24T05:07:46.155Z,15.50
2018-02-24T05:10:14.524Z,15.27
2018-02-24T05:12:42.883Z,14.37
2018-02-24T05:15:12.015Z,15.43
2018-02-24T05:17:40.383Z,16.10
2018-02-24T05:20:08.755Z,15.40
2018-02-24T05:22:37.103Z,15.10
2018-02-24T05:25:06.337Z,15.70
2018-02-24T05:27:34.755Z,15.53
2018-02-24T05:30:03.559Z,14.80
2018-02-24T05:32:31.911Z,14.97
2018-02-24T05:35:00.310Z,13.87
2018-02-24T05:37:28.656Z,14.13
2018-02-24T05:39:57.024Z,14.97
2018-02-24T05:42:25.589Z,14.30
2018-02-24T05:44:53.945Z,15.20
2018-02-24T05:47:23.067Z,14.50
2018-02-24T05:49:51.454Z,13.33
2018-02-24T05:52:19.981Z,15.40
2018-02-24T05:54:48.340Z,14.83
2018-02-24T05:57:16.720Z,13.87
2018-02-24T05:59:45.074Z,14.50
2018-02-24T06:02:13.276Z,15.00
2018-02-24T06:04:41.624Z,14.50
2018-02-24T06:07:10.167Z,15.27
2018-02-24T06:09:43.829Z,13.70
2018-02-24T06:12:12.214Z,15.67
2018-02-24T06:14:40.565Z,14.37
2018-02-24T06:17:09.144Z,14.37
2018-02-24T06:19:37.509Z,14.53
2018-02-24T06:22:05.883Z,14.07
2018-02-24T06:24:34.245Z,14.07
2018-02-24T06:27:02.541Z,13.40
2018-02-24T06:29:31.246Z,14.70
2018-02-24T06:31:59.440Z,14.37
2018-02-24T06:34:27.672Z,15.10
2018-02-24T06:36:56.035Z,13.67
2018-02-24T06:39:24.327Z,13.50
2018-02-24T06:41:52.732Z,13.83
2018-02-24T06:44:21.096Z,14.47
2018-02-24T06:46:49.454Z,13.43
2018-02-24T06:49:17.931Z,13.90
2018-02-24T06:51:46.463Z,13.67
2018-02-24T06:54:14.839Z,14.10
2018-02-24T06:56:43.246Z,14.77
2018-02-24T06:59:12.598Z,15.03
2018-02-24T07:01:40.971Z,15.77
2018-02-24T07:04:09.362Z,15.23
2018-02-24T07:06:38.596Z,14.30
2018-02-24T07:09:07.026Z,14.47
2018-02-24T07:11:35.553Z,13.87
2018-02-24T07:14:04.321Z,15.30
2018-02-24T07:16:32.723Z,15.63
2018-02-24T07:19:01.151Z,16.30
2018-02-24T07:21:29.551Z,14.73
2018-02-24T07:23:57.913Z,15.80
2018-02-24T07:26:27.007Z,14.43
2018-02-24T07:28:55.506Z,16.20
2018-02-24T07:31:23.882Z,15.80
2018-02-24T07:33:52.281Z,15.10
2018-02-24T07:36:20.880Z,15.40
2018-02-24T07:38:50.019Z,13.60
2018-02-24T07:41:18.546Z,15.50
2018-02-24T07:43:46.892Z,14.90
2018-02-24T07:46:15.421Z,16.57
2018-02-24T07:48:44.574Z,16.60
2018-02-24T07:51:12.940Z,14.80
2018-02-24T07:53:41.168Z,14.60
2018-02-24T07:56:10.336Z,14.57
2018-02-24T07:58:38.919Z,15.37
2018-02-24T08:01:07.311Z,14.97
2018-02-24T08:03:36.639Z,14.80
2018-02-24T08:06:05.057Z,15.00
2018-02-24T08:08:33.444Z,14.57
2018-02-24T08:11:01.807Z,14.83
2018-02-24T08:13:30.197Z,14.40
2018-02-24T08:15:58.561Z,14.70
2018-02-24T08:18:26.934Z,13.10
2018-02-24T08:20:55.304Z,13.60
2018-02-24T08:23:23.695Z,13.70
2018-02-24T08:25:52.062Z,13.33
2018-02-24T08:28:21.415Z,12.90
2018-02-24T08:30:50.655Z,13.13
2018-02-24T08:33:19.173Z,14.07
2018-02-24T08:35:47.524Z,11.53
2018-02-24T08:38:15.958Z,13.03
2018-02-24T08:40:44.925Z,11.80
2018-02-24T08:43:13.495Z,11.47
2018-02-24T08:45:41.860Z,12.23
2018-02-24T08:48:10.256Z,11.83
2018-02-24T08:50:38.904Z,11.33
2018-02-24T08:53:07.262Z,11.60
2018-02-24T08:55:36.402Z,10.53
2018-02-24T08:58:04.734Z,10.07
2018-02-24T09:00:33.886Z,9.97
2018-02-24T09:03:02.883Z,10.83
2018-02-24T09:05:31.274Z,10.87
2018-02-24T09:07:59.627Z,10.47
2018-02-24T09:10:28.728Z,9.90
2018-02-24T09:12:57.081Z,10.63
2018-02-24T09:15:25.440Z,10.73
2018-02-24T09:17:53.803Z,10.40
2018-02-24T09:20:22.939Z,10.47
2018-02-24T09:22:51.333Z,10.10
2018-02-24T09:25:19.685Z,9.67
2018-02-24T09:27:48.068Z,9.20
2018-02-24T09:30:16.421Z,9.90
2018-02-24T09:32:45.572Z,10.17
2018-02-24T09:35:14.037Z,8.80
2018-02-24T09:37:42.410Z,9.00
2018-02-24T09:40:10.814Z,9.10
2018-02-24T09:42:39.172Z,10.03
2018-02-24T09:45:07.758Z,9.97
2018-02-24T09:47:36.110Z,8.93
2018-02-24T09:50:04.193Z,9.67
2018-02-24T09:52:32.563Z,9.87
2018-02-24T09:55:00.906Z,9.57
2018-02-24T09:57:30.049Z,9.37
2018-02-24T09:59:58.393Z,9.80
2018-02-24T10:02:26.759Z,10.23
2018-02-24T10:04:55.950Z,9.50
2018-02-24T10:07:25.099Z,9.80
2018-02-24T10:09:53.454Z,8.80
2018-02-24T10:12:22.060Z,10.00
2018-02-24T10:14:50.584Z,10.03
2018-02-24T10:17:19.712Z,9.70
2018-02-24T10:19:48.092Z,9.30
2018-02-24T10:22:16.615Z,9.60
2018-02-24T10:24:45.897Z,9.87
2018-02-24T10:27:14.888Z,9.73
2018-02-24T10:29:43.269Z,9.60
2018-02-24T10:32:11.959Z,9.40
2018-02-24T10:34:40.504Z,9.20
2018-02-24T10:37:08.858Z,10.10
2018-02-24T10:39:37.413Z,9.10
2018-02-24T10:42:05.550Z,9.40
2018-02-24T10:44:34.874Z,9.03
2018-02-24T10:47:03.227Z,9.70
2018-02-24T10:49:31.577Z,8.33
2018-02-24T10:52:00.696Z,9.33
2018-02-24T10:54:29.055Z,8.50
2018-02-24T10:56:57.404Z,8.50
2018-02-24T10:59:25.876Z,8.90
2018-02-24T11:01:54.290Z,8.63
2018-02-24T11:04:23.483Z,8.90
2018-02-24T11:06:52.615Z,8.00
2018-02-24T11:09:21.107Z,9.33
2018-02-24T11:11:49.641Z,10.90
2018-02-24T11:14:18.758Z,10.70
2018-02-24T11:16:47.109Z,9.87
2018-02-24T11:19:16.982Z,10.10
2018-02-24T11:21:45.359Z,10.63
2018-02-24T11:24:13.524Z,10.30
2018-02-24T11:26:41.980Z,10.17
2018-02-24T11:29:10.334Z,10.27
2018-02-24T11:31:40.123Z,10.10
2018-02-24T11:34:09.987Z,9.83
2018-02-24T11:36:38.415Z,9.43
2018-02-24T11:39:06.876Z,8.33
2018-02-24T11:41:35.256Z,9.67
2018-02-24T11:44:03.510Z,9.60
2018-02-24T11:46:31.919Z,9.87
2018-02-24T11:49:00.545Z,9.70
2018-02-24T11:51:28.920Z,9.60
2018-02-24T11:53:57.304Z,9.33
2018-02-24T11:56:25.656Z,9.70
2018-02-24T11:58:54.820Z,8.67
2018-02-24T12:01:23.442Z,9.17
2018-02-24T12:03:52.605Z,9.17
2018-02-24T12:06:21.071Z,9.27
2018-02-24T12:08:49.537Z,9.20
2018-02-24T12:11:18.015Z,8.53
2018-02-24T12:13:47.066Z,8.90
2018-02-24T12:16:15.733Z,8.83
2018-02-24T12:18:44.170Z,8.20
2018-02-24T12:21:12.845Z,8.60
2018-02-24T12:23:41.204Z,9.23
2018-02-24T12:26:10.492Z,8.17
2018-02-24T12:28:40.005Z,8.40
2018-02-24T12:31:09.165Z,9.27
2018-02-24T12:33:37.659Z,8.63
2018-02-24T12:36:06.043Z,8.80
2018-02-24T12:38:34.522Z,8.30
2018-02-24T12:41:02.911Z,8.90
2018-02-24T12:43:32.067Z,8.93
2018-02-24T12:46:00.918Z,8.63
2018-02-24T12:48:29.423Z,8.67
2018-02-24T12:50:57.840Z,9.03
2018-02-24T12:53:26.343Z,9.00
2018-02-24T12:55:55.537Z,8.83
2018-02-24T12:58:24.836Z,8.93
2018-02-24T13:00:54.082Z,9.30
2018-02-24T13:03:22.684Z,8.70
2018-02-24T13:05:51.220Z,7.47
2018-02-24T13:08:19.594Z,8.93
2018-02-24T13:10:47.980Z,7.73
2018-02-24T13:13:17.099Z,8.47
2018-02-24T13:15:45.470Z,8.63
2018-02-24T13:18:13.838Z,8.37
2018-02-24T13:20:42.326Z,7.70
2018-02-24T13:23:11.338Z,8.53
2018-02-24T13:25:39.720Z,8.00
2018-02-24T13:28:08.247Z,7.60
2018-02-24T13:30:37.206Z,7.37
2018-02-24T13:33:06.222Z,7.50
2018-02-24T13:35:35.152Z,7.90
2018-02-24T13:38:03.527Z,7.60
2018-02-24T13:40:31.703Z,8.07
2018-02-24T13:43:00.221Z,8.10
2018-02-24T13:45:28.783Z,8.17
2018-02-24T13:47:56.952Z,7.40
2018-02-24T13:50:26.044Z,7.70
2018-02-24T13:52:54.399Z,7.87
2018-02-24T13:55:22.763Z,7.43
2018-02-24T13:57:52.032Z,7.60
2018-02-24T14:00:20.727Z,7.33
2018-02-24T14:02:49.112Z,7.00
2018-02-24T14:05:18.392Z,7.20
2018-02-24T14:07:46.765Z,7.00
2018-02-24T14:10:15.249Z,7.50
2018-02-24T14:12:43.479Z,6.87
2018-02-24T14:15:11.834Z,7.60
2018-02-24T14:17:40.964Z,7.50
2018-02-24T14:20:10.307Z,7.00
2018-02-24T14:22:39.586Z,6.87
2018-02-24T14:25:08.017Z,6.60
2018-02-24T14:27:36.700Z,6.80
2018-02-24T14:30:05.843Z,6.53
2018-02-24T14:32:34.482Z,6.27
2018-02-24T14:35:02.854Z,7.40
2018-02-24T14:37:31.207Z,6.20
2018-02-24T14:39:59.746Z,6.63
2018-02-24T14:42:28.243Z,7.40
2018-02-24T14:44:56.614Z,7.03
2018-02-24T14:47:25.117Z,7.07
2018-02-24T14:49:53.479Z,6.37
2018-02-24T14:52:22.173Z,5.83
2018-02-24T14:54:50.546Z,6.17
2018-02-24T14:57:18.924Z,6.73
2018-02-24T14:59:47.361Z,5.87
2018-02-24T15:02:15.736Z,5.80
2018-02-24T15:04:44.098Z,6.40
2018-02-24T15:07:13.280Z,6.87
2018-02-24T15:09:43.347Z,6.93
2018-02-24T15:12:11.721Z,6.37
2018-02-24T15:14:39.996Z,5.97
2018-02-24T15:17:08.309Z,6.13
2018-02-24T15:19:36.664Z,6.10
2018-02-24T15:22:04.859Z,7.70
2018-02-24T15:24:33.698Z,6.60
2018-02-24T15:27:02.083Z,6.63
2018-02-24T15:29:30.438Z,6.40
2018-02-24T15:31:59.547Z,6.20
2018-02-24T15:34:27.907Z,5.87
2018-02-24T15:36:56.845Z,6.17
2018-02-24T15:39:25.249Z,6.63
2018-02-24T15:41:53.414Z,6.57
2018-02-24T15:44:21.866Z,6.23
2018-02-24T15:46:50.336Z,5.80
2018-02-24T15:49:18.698Z,6.60
2018-02-24T15:51:47.807Z,6.70
2018-02-24T15:54:16.246Z,7.67
2018-02-24T15:56:45.397Z,6.67
2018-02-24T15:59:14.045Z,6.60
2018-02-24T16:01:43.205Z,7.13
2018-02-24T16:04:11.590Z,7.00
2018-02-24T16:06:40.152Z,6.90
2018-02-24T16:09:08.517Z,7.10
2018-02-24T16:11:36.868Z,7.57
2018-02-24T16:14:05.996Z,6.80
2018-02-24T16:16:34.583Z,7.10
2018-02-24T16:19:02.813Z,6.50
2018-02-24T16:21:32.153Z,7.50
2018-02-24T16:24:00.703Z,6.77
2018-02-24T16:26:29.117Z,6.60
2018-02-24T16:28:57.457Z,7.27
2018-02-24T16:31:26.615Z,7.00
2018-02-24T16:33:54.963Z,6.70
2018-02-24T16:36:23.359Z,6.90
2018-02-24T16:38:51.723Z,6.77
2018-02-24T16:41:20.131Z,6.70
2018-02-24T16:43:48.569Z,7.33
2018-02-24T16:46:17.127Z,8.17
2018-02-24T16:48:46.260Z,9.10
2018-02-24T16:51:14.845Z,9.13
2018-02-24T16:53:43.232Z,10.53
2018-02-24T16:56:11.587Z,9.27
2018-02-24T16:58:39.965Z,9.03
2018-02-24T17:01:08.359Z,8.73
2018-02-24T17:03:36.912Z,9.10
2018-02-24T17:06:05.280Z,9.17
2018-02-24T17:08:34.410Z,8.80
2018-02-24T17:11:02.782Z,9.97
2018-02-24T17:13:31.139Z,8.90
2018-02-24T17:15:59.582Z,8.90
2018-02-24T17:18:28.156Z,8.10
2018-02-24T17:20:56.572Z,8.20
2018-02-24T17:23:25.404Z,8.63
2018-02-24T17:25:53.764Z,8.43
2018-02-24T17:28:22.123Z,10.23
2018-02-24T17:30:50.480Z,9.17
2018-02-24T17:33:19.635Z,9.17
2018-02-24T17:35:47.998Z,10.67
2018-02-24T17:38:16.192Z,8.87
2018-02-24T17:40:44.552Z,9.30
2018-02-24T17:43:13.076Z,9.13
2018-02-24T17:45:41.425Z,8.40
2018-02-24T17:48:09.792Z,8.77
2018-02-24T17:50:37.963Z,8.07
2018-02-24T17:53:06.315Z,8.23
2018-02-24T17:55:34.771Z,8.57
2018-02-24T17:58:03.920Z,8.17
2018-02-24T18:00:32.316Z,7.63
2018-02-24T18:03:00.515Z,7.60
2018-02-24T18:05:28.943Z,7.60
2018-02-24T18:07:57.292Z,7.40
2018-02-24T18:10:25.711Z,7.43
2018-02-24T18:12:54.095Z,7.33
2018-02-24T18:15:22.732Z,7.07
2018-02-24T18:17:51.100Z,8.07
2018-02-24T18:20:20.208Z,7.00
2018-02-24T18:22:48.640Z,6.90
2018-02-24T18:25:17.464Z,6.80
2018-02-24T18:27:46.590Z,7.63
2018-02-24T18:30:14.964Z,6.90
2018-02-24T18:32:44.096Z,6.40
2018-02-24T18:35:12.552Z,6.77
2018-02-24T18:37:40.910Z,7.00
2018-02-24T18:40:09.293Z,6.80
2018-02-24T18:42:37.700Z,6.43
2018-02-24T18:45:06.039Z,6.57
2018-02-24T18:47:34.415Z,6.23
2018-02-24T18:50:02.782Z,6.20
2018-02-24T18:52:32.254Z,6.13
2018-02-24T18:55:00.602Z,6.87
2018-02-24T18:57:28.786Z,5.90
2018-02-24T18:59:57.137Z,5.13
2018-02-24T19:02:25.509Z,5.00
2018-02-24T19:04:53.880Z,5.03
2018-02-24T19:07:21.907Z,5.10
2018-02-24T19:09:50.320Z,5.50
2018-02-24T19:12:19.485Z,5.50
2018-02-24T19:14:47.676Z,4.50
2018-02-24T19:17:16.020Z,4.10
2018-02-24T19:19:44.287Z,4.20
2018-02-24T19:22:13.035Z,4.23
2018-02-24T19:24:42.153Z,3.70
2018-02-24T19:27:10.686Z,3.70
2018-02-24T19:29:38.863Z,4.23
2018-02-24T19:32:08.059Z,3.60
2018-02-24T19:34:36.444Z,3.93
2018-02-24T19:37:05.556Z,4.00
2018-02-24T19:39:34.700Z,3.80
2018-02-24T19:42:03.057Z,3.60
2018-02-24T19:44:31.407Z,3.70
2018-02-24T19:47:00.552Z,3.77
2018-02-24T19:49:28.913Z,3.73
2018-02-24T19:51:57.307Z,3.73
2018-02-24T19:54:25.659Z,3.57
2018-02-24T19:56:54.016Z,4.10
2018-02-24T19:59:22.422Z,3.43
2018-02-24T20:01:50.872Z,3.27
2018-02-24T20:04:20.224Z,3.80
2018-02-24T20:06:48.603Z,3.37
2018-02-24T20:09:17.111Z,3.63
2018-02-24T20:11:46.275Z,3.63
2018-02-24T20:14:14.796Z,3.40
2018-02-24T20:16:43.951Z,3.40
2018-02-24T20:19:12.411Z,3.63
2018-02-24T20:21:40.749Z,3.70
2018-02-24T20:24:09.685Z,3.83
2018-02-24T20:26:38.044Z,3.67
2018-02-24T20:29:06.755Z,3.63
2018-02-24T20:31:35.305Z,4.10
2018-02-24T20:34:04.459Z,3.87
2018-02-24T20:36:33.027Z,4.07
2018-02-24T20:39:01.525Z,4.20
2018-02-24T20:41:30.079Z,3.57
2018-02-24T20:43:58.458Z,3.90
2018-02-24T20:46:26.794Z,3.70
2018-02-24T20:48:55.900Z,3.90
2018-02-24T20:51:24.267Z,3.70
2018-02-24T20:53:53.406Z,3.93
2018-02-24T20:56:21.760Z,3.93
2018-02-24T20:58:50.267Z,3.57
2018-02-24T21:01:18.662Z,3.83
2018-02-24T21:03:47.078Z,3.90
2018-02-24T21:06:16.030Z,3.50
2018-02-24T21:08:44.417Z,4.33
2018-02-24T21:11:12.776Z,4.03
2018-02-24T21:13:41.150Z,3.70
2018-02-24T21:16:09.782Z,3.80
2018-02-24T21:18:39.092Z,3.90
2018-02-24T21:21:07.496Z,3.80
2018-02-24T21:23:35.854Z,3.60
2018-02-24T21:26:04.249Z,3.60
2018-02-24T21:28:32.595Z,3.90
2018-02-24T21:31:01.735Z,3.80
2018-02-24T21:33:30.170Z,3.63
2018-02-24T21:35:59.140Z,3.97
2018-02-24T21:38:27.432Z,3.50
2018-02-24T21:40:56.761Z,4.30
2018-02-24T21:43:25.396Z,4.10
2018-02-24T21:45:53.771Z,3.90
2018-02-24T21:48:22.202Z,4.00
2018-02-24T21:50:50.887Z,4.00
2018-02-24T21:53:19.274Z,3.50
2018-02-24T21:55:47.635Z,4.13
2018-02-24T21:58:16.033Z,4.07
2018-02-24T22:00:44.412Z,3.90
2018-02-24T22:03:13.084Z,4.00
2018-02-24T22:05:41.489Z,4.10
2018-02-24T22:08:09.855Z,3.97
2018-02-24T22:10:38.442Z,4.30
2018-02-24T22:13:07.304Z,4.07
2018-02-24T22:15:36.451Z,4.30
2018-02-24T22:18:05.007Z,3.70
2018-02-24T22:20:33.348Z,3.80
2018-02-24T22:23:02.739Z,4.03
2018-02-24T22:25:31.903Z,4.30
2018-02-24T22:28:00.408Z,3.93
2018-02-24T22:30:28.589Z,4.03
2018-02-24T22:32:57.737Z,4.00
2018-02-24T22:35:26.394Z,4.13
2018-02-24T22:37:54.793Z,4.43
2018-02-24T22:40:23.483Z,4.63
2018-02-24T22:42:51.846Z,3.83
2018-02-24T22:45:20.428Z,4.80
2018-02-24T22:47:54.382Z,4.63
2018-02-24T22:50:22.754Z,4.27
2018-02-24T22:52:51.248Z,4.43
2018-02-24T22:55:19.746Z,4.30
2018-02-24T22:57:48.976Z,4.20
2018-02-24T23:00:17.163Z,4.40
2018-02-24T23:02:45.569Z,4.30
2018-02-24T23:05:13.969Z,4.83
2018-02-24T23:07:43.191Z,4.20
2018-02-24T23:10:11.706Z,4.10
2018-02-24T23:12:40.170Z,4.40
2018-02-24T23:15:08.697Z,4.40
2018-02-24T23:17:37.213Z,4.30
2018-02-24T23:20:05.591Z,4.23
2018-02-24T23:22:34.136Z,3.97
2018-02-24T23:25:02.713Z,3.90
2018-02-24T23:27:31.831Z,4.00
2018-02-24T23:30:00.798Z,3.80
2018-02-24T23:32:29.350Z,4.40
2018-02-24T23:34:57.560Z,4.10
2018-02-24T23:37:26.031Z,3.80
2018-02-24T23:39:54.438Z,4.10
2018-02-24T23:42:23.244Z,4.17
2018-02-24T23:44:51.930Z,4.10
2018-02-24T23:47:20.965Z,3.70
2018-02-24T23:49:49.508Z,3.90
2018-02-24T23:52:18.043Z,4.30
2018-02-24T23:54:46.427Z,4.50
2018-02-24T23:57:14.953Z,4.30
2018-02-24T23:59:43.304Z,4.30
